createdAt,value
2023-02-14T00:00:09.508Z,75.74
2023-02-14T00:00:19.607Z,75.63
2023-02-14T00:00:29.557Z,75.74
2023-02-14T00:00:39.683Z,75.63
2023-02-14T00:00:49.765Z,75.63
2023-02-14T00:01:00.134Z,75.63
2023-02-14T00:01:09.962Z,75.63
2023-02-14T00:01:20.038Z,75.53
2023-02-14T00:01:30.117Z,75.53
2023-02-14T00:01:40.178Z,75.53
2023-02-14T00:01:50.250Z,75.53
2023-02-14T00:02:00.318Z,75.53
2023-02-14T00:02:10.398Z,75.53
2023-02-14T00:02:20.485Z,75.53
2023-02-14T00:02:30.603Z,75.43
2023-02-14T00:02:40.746Z,75.43
2023-02-14T00:02:50.887Z,75.53
2023-02-14T00:03:01.014Z,75.53
2023-02-14T00:03:11.206Z,75.53
2023-02-14T00:03:21.130Z,75.53
2023-02-14T00:03:31.187Z,75.53
2023-02-14T00:03:41.272Z,75.53
2023-02-14T00:03:51.400Z,75.43
2023-02-14T00:04:01.475Z,75.43
2023-02-14T00:04:11.571Z,75.53
2023-02-14T00:04:21.642Z,75.53
2023-02-14T00:04:31.728Z,75.53
2023-02-14T00:04:41.856Z,75.43
2023-02-14T00:04:52.003Z,75.43
2023-02-14T00:05:02.075Z,75.43
2023-02-14T00:05:12.171Z,75.43
2023-02-14T00:05:22.230Z,75.43
2023-02-14T00:05:32.288Z,75.43
2023-02-14T00:05:42.363Z,75.43
2023-02-14T00:05:52.449Z,75.43
2023-02-14T00:06:02.537Z,75.43
2023-02-14T00:06:12.650Z,75.53
2023-02-14T00:06:22.719Z,75.53
2023-02-14T00:06:32.797Z,75.53
2023-02-14T00:06:42.868Z,75.53
2023-02-14T00:06:52.940Z,75.63
2023-02-14T00:07:03.030Z,75.63
2023-02-14T00:07:13.098Z,75.63
2023-02-14T00:07:23.168Z,75.63
2023-02-14T00:07:33.252Z,75.63
2023-02-14T00:07:43.332Z,75.63
2023-02-14T00:07:53.406Z,75.63
2023-02-14T00:08:03.477Z,75.63
2023-02-14T00:08:13.565Z,75.63
2023-02-14T00:08:23.627Z,75.63
2023-02-14T00:08:33.710Z,75.63
2023-02-14T00:08:43.779Z,75.63
2023-02-14T00:08:53.878Z,75.53
2023-02-14T00:09:03.944Z,75.53
2023-02-14T00:09:14.019Z,75.53
2023-02-14T00:09:24.108Z,75.53
2023-02-14T00:09:34.206Z,75.53
2023-02-14T00:09:44.270Z,75.53
2023-02-14T00:09:54.358Z,75.53
2023-02-14T00:10:04.441Z,75.53
2023-02-14T00:10:14.546Z,75.53
2023-02-14T00:10:24.604Z,75.63
2023-02-14T00:10:34.678Z,75.63
2023-02-14T00:10:44.740Z,75.74
2023-02-14T00:10:54.833Z,75.74
2023-02-14T00:11:04.906Z,75.70
2023-02-14T00:11:14.994Z,75.74
2023-02-14T00:11:25.091Z,75.63
2023-02-14T00:11:35.147Z,75.60
2023-02-14T00:11:45.207Z,75.63
2023-02-14T00:11:55.279Z,75.63
2023-02-14T00:12:05.335Z,75.63
2023-02-14T00:12:15.416Z,75.53
2023-02-14T00:12:25.472Z,75.53
2023-02-14T00:12:35.529Z,75.43
2023-02-14T00:12:45.582Z,75.43
2023-02-14T00:12:55.658Z,75.43
2023-02-14T00:13:05.716Z,75.43
2023-02-14T00:13:15.773Z,75.43
2023-02-14T00:13:25.827Z,75.53
2023-02-14T00:13:35.886Z,75.43
2023-02-14T00:13:45.946Z,75.53
2023-02-14T00:13:56.014Z,75.43
2023-02-14T00:14:06.066Z,75.43
2023-02-14T00:14:16.126Z,75.43
2023-02-14T00:14:26.277Z,75.43
2023-02-14T00:14:36.333Z,75.43
2023-02-14T00:14:46.397Z,75.32
2023-02-14T00:14:56.450Z,75.32
2023-02-14T00:15:06.497Z,75.32
2023-02-14T00:15:16.555Z,75.32
2023-02-14T00:15:26.676Z,75.32
2023-02-14T00:15:36.734Z,75.32
2023-02-14T00:15:46.802Z,75.32
2023-02-14T00:15:56.897Z,75.43
2023-02-14T00:16:07.059Z,75.43
2023-02-14T00:16:17.039Z,75.43
2023-02-14T00:16:27.162Z,75.43
2023-02-14T00:16:37.103Z,75.43
2023-02-14T00:16:47.185Z,75.53
2023-02-14T00:16:57.268Z,75.53
2023-02-14T00:17:07.343Z,75.53
2023-02-14T00:17:17.423Z,75.53
2023-02-14T00:17:27.498Z,75.53
2023-02-14T00:17:37.577Z,75.53
2023-02-14T00:17:47.649Z,75.63
2023-02-14T00:17:57.738Z,75.63
2023-02-14T00:18:07.818Z,75.74
2023-02-14T00:18:19.679Z,75.74
2023-02-14T00:18:27.946Z,75.74
2023-02-14T00:18:38.043Z,75.74
2023-02-14T00:18:48.108Z,75.74
2023-02-14T00:18:58.178Z,75.74
2023-02-14T00:19:08.258Z,75.84
2023-02-14T00:19:18.329Z,75.84
2023-02-14T00:19:28.460Z,75.84
2023-02-14T00:19:38.536Z,75.84
2023-02-14T00:19:48.611Z,75.84
2023-02-14T00:19:58.681Z,75.84
2023-02-14T00:20:08.748Z,75.84
2023-02-14T00:20:18.826Z,75.95
2023-02-14T00:20:28.895Z,75.95
2023-02-14T00:20:38.965Z,75.95
2023-02-14T00:20:49.036Z,75.95
2023-02-14T00:20:59.433Z,75.95
2023-02-14T00:21:09.161Z,75.95
2023-02-14T00:21:19.235Z,75.95
2023-02-14T00:21:29.289Z,75.95
2023-02-14T00:21:39.366Z,75.95
2023-02-14T00:21:49.436Z,75.95
2023-02-14T00:21:59.517Z,75.95
2023-02-14T00:22:09.586Z,75.95
2023-02-14T00:22:19.677Z,75.98
2023-02-14T00:22:29.763Z,75.95
2023-02-14T00:22:39.817Z,75.98
2023-02-14T00:22:49.905Z,75.95
2023-02-14T00:22:59.985Z,76.08
2023-02-14T00:23:10.038Z,76.08
2023-02-14T00:23:20.115Z,76.08
2023-02-14T00:23:30.196Z,76.08
2023-02-14T00:23:40.278Z,76.08
2023-02-14T00:23:50.347Z,76.08
2023-02-14T00:24:00.428Z,76.08
2023-02-14T00:24:10.516Z,76.08
2023-02-14T00:24:20.578Z,76.08
2023-02-14T00:24:30.656Z,76.08
2023-02-14T00:24:40.727Z,76.08
2023-02-14T00:24:50.816Z,75.98
2023-02-14T00:25:00.896Z,76.08
2023-02-14T00:25:10.970Z,76.08
2023-02-14T00:25:21.025Z,76.08
2023-02-14T00:25:31.102Z,76.08
2023-02-14T00:25:41.148Z,76.08
2023-02-14T00:25:51.216Z,76.08
2023-02-14T00:26:01.276Z,76.08
2023-02-14T00:26:11.350Z,76.18
2023-02-14T00:26:21.405Z,76.18
2023-02-14T00:26:31.475Z,76.18
2023-02-14T00:26:41.544Z,76.18
2023-02-14T00:26:51.630Z,76.18
2023-02-14T00:27:01.749Z,76.18
2023-02-14T00:27:11.831Z,76.18
2023-02-14T00:27:21.881Z,76.18
2023-02-14T00:27:31.938Z,76.18
2023-02-14T00:27:42.006Z,76.29
2023-02-14T00:27:52.076Z,76.29
2023-02-14T00:28:02.166Z,76.29
2023-02-14T00:28:12.245Z,76.29
2023-02-14T00:28:22.315Z,76.29
2023-02-14T00:28:32.378Z,76.29
2023-02-14T00:28:42.444Z,76.39
2023-02-14T00:28:52.515Z,76.39
2023-02-14T00:29:02.584Z,76.39
2023-02-14T00:29:12.648Z,76.39
2023-02-14T00:29:22.695Z,76.39
2023-02-14T00:29:32.776Z,76.39
2023-02-14T00:29:42.855Z,76.39
2023-02-14T00:29:52.957Z,76.35
2023-02-14T00:30:03.113Z,76.39
2023-02-14T00:30:13.143Z,76.35
2023-02-14T00:30:23.126Z,76.35
2023-02-14T00:30:33.305Z,76.35
2023-02-14T00:30:43.231Z,76.35
2023-02-14T00:30:53.344Z,76.35
2023-02-14T00:31:03.534Z,76.25
2023-02-14T00:31:13.572Z,76.25
2023-02-14T00:31:23.637Z,76.25
2023-02-14T00:31:33.726Z,76.25
2023-02-14T00:31:43.674Z,76.25
2023-02-14T00:31:53.825Z,76.25
2023-02-14T00:32:03.804Z,76.25
2023-02-14T00:32:13.946Z,76.25
2023-02-14T00:32:23.920Z,76.25
2023-02-14T00:32:34.041Z,76.25
2023-02-14T00:32:44.104Z,76.15
2023-02-14T00:32:54.182Z,76.15
2023-02-14T00:33:04.256Z,76.15
2023-02-14T00:33:14.343Z,76.04
2023-02-14T00:33:24.415Z,75.95
2023-02-14T00:33:34.486Z,75.95
2023-02-14T00:33:44.562Z,75.95
2023-02-14T00:33:54.655Z,75.95
2023-02-14T00:34:04.733Z,75.95
2023-02-14T00:34:14.819Z,75.95
2023-02-14T00:34:24.905Z,75.84
2023-02-14T00:34:34.992Z,75.74
2023-02-14T00:34:45.067Z,75.53
2023-02-14T00:34:55.144Z,75.43
2023-02-14T00:35:05.234Z,75.43
2023-02-14T00:35:15.298Z,75.32
2023-02-14T00:35:25.366Z,75.22
2023-02-14T00:35:35.434Z,75.22
2023-02-14T00:35:45.536Z,75.22
2023-02-14T00:35:55.625Z,75.22
2023-02-14T00:36:05.704Z,75.22
2023-02-14T00:36:15.771Z,75.22
2023-02-14T00:36:25.846Z,75.22
2023-02-14T00:36:35.906Z,75.22
2023-02-14T00:36:45.991Z,75.12
2023-02-14T00:36:56.055Z,75.12
2023-02-14T00:37:06.116Z,75.22
2023-02-14T00:37:16.195Z,75.12
2023-02-14T00:37:26.255Z,75.12
2023-02-14T00:37:36.334Z,75.12
2023-02-14T00:37:46.405Z,75.12
2023-02-14T00:37:56.506Z,75.12
2023-02-14T00:38:06.573Z,75.12
2023-02-14T00:38:16.634Z,75.12
2023-02-14T00:38:26.711Z,75.12
2023-02-14T00:38:36.774Z,75.12
2023-02-14T00:38:46.845Z,75.12
2023-02-14T00:38:56.917Z,75.12
2023-02-14T00:39:06.992Z,75.22
2023-02-14T00:39:17.076Z,75.22
2023-02-14T00:39:27.207Z,75.22
2023-02-14T00:39:37.306Z,75.22
2023-02-14T00:39:47.366Z,75.22
2023-02-14T00:39:57.425Z,75.32
2023-02-14T00:40:07.485Z,75.32
2023-02-14T00:40:17.554Z,75.32
2023-02-14T00:40:27.614Z,75.32
2023-02-14T00:40:37.676Z,75.32
2023-02-14T00:40:47.746Z,75.32
2023-02-14T00:40:58.141Z,75.32
2023-02-14T00:41:07.852Z,75.32
2023-02-14T00:41:17.917Z,75.32
2023-02-14T00:41:27.964Z,75.32
2023-02-14T00:41:38.037Z,75.43
2023-02-14T00:41:48.104Z,75.43
2023-02-14T00:41:58.173Z,75.43
2023-02-14T00:42:08.277Z,75.43
2023-02-14T00:42:18.341Z,75.43
2023-02-14T00:42:28.393Z,75.53
2023-02-14T00:42:38.476Z,75.53
2023-02-14T00:42:48.534Z,75.53
2023-02-14T00:42:58.622Z,75.53
2023-02-14T00:43:08.702Z,75.53
2023-02-14T00:43:18.760Z,75.53
2023-02-14T00:43:28.846Z,75.53
2023-02-14T00:43:38.905Z,75.53
2023-02-14T00:43:48.973Z,75.53
2023-02-14T00:43:59.056Z,75.63
2023-02-14T00:44:09.132Z,75.63
2023-02-14T00:44:19.214Z,75.63
2023-02-14T00:44:29.282Z,75.60
2023-02-14T00:44:39.371Z,75.60
2023-02-14T00:44:49.463Z,75.60
2023-02-14T00:44:59.545Z,75.49
2023-02-14T00:45:09.639Z,75.49
2023-02-14T00:45:19.695Z,75.39
2023-02-14T00:45:29.795Z,75.39
2023-02-14T00:45:39.879Z,75.29
2023-02-14T00:45:50.008Z,75.29
2023-02-14T00:46:00.198Z,75.18
2023-02-14T00:46:10.187Z,75.18
2023-02-14T00:46:20.124Z,75.18
2023-02-14T00:46:30.233Z,75.18
2023-02-14T00:46:40.296Z,75.09
2023-02-14T00:46:50.364Z,75.09
2023-02-14T00:47:00.456Z,75.09
2023-02-14T00:47:10.544Z,75.09
2023-02-14T00:47:20.614Z,74.98
2023-02-14T00:47:30.699Z,74.98
2023-02-14T00:47:40.753Z,74.98
2023-02-14T00:47:50.824Z,74.88
2023-02-14T00:48:00.894Z,74.88
2023-02-14T00:48:10.993Z,74.88
2023-02-14T00:48:21.083Z,74.88
2023-02-14T00:48:31.152Z,74.88
2023-02-14T00:48:41.221Z,74.77
2023-02-14T00:48:51.292Z,74.77
2023-02-14T00:49:01.377Z,74.77
2023-02-14T00:49:11.445Z,74.77
2023-02-14T00:49:21.503Z,74.77
2023-02-14T00:49:31.580Z,74.77
2023-02-14T00:49:41.665Z,74.77
2023-02-14T00:49:51.760Z,74.77
2023-02-14T00:50:01.842Z,74.88
2023-02-14T00:50:11.913Z,74.88
2023-02-14T00:50:22.017Z,74.88
2023-02-14T00:50:32.072Z,74.88
2023-02-14T00:50:42.129Z,74.88
2023-02-14T00:50:52.247Z,74.88
2023-02-14T00:51:02.313Z,74.88
2023-02-14T00:51:12.394Z,74.88
2023-02-14T00:51:22.452Z,74.98
2023-02-14T00:51:32.541Z,74.98
2023-02-14T00:51:42.602Z,74.98
2023-02-14T00:51:52.717Z,74.98
2023-02-14T00:52:02.762Z,74.98
2023-02-14T00:52:12.837Z,74.98
2023-02-14T00:52:22.895Z,74.98
2023-02-14T00:52:32.967Z,75.01
2023-02-14T00:52:43.045Z,75.01
2023-02-14T00:52:53.115Z,75.01
2023-02-14T00:53:03.181Z,75.01
2023-02-14T00:53:13.275Z,75.01
2023-02-14T00:53:23.331Z,75.01
2023-02-14T00:53:33.390Z,75.01
2023-02-14T00:53:43.453Z,75.01
2023-02-14T00:53:53.522Z,75.01
2023-02-14T00:54:03.599Z,75.01
2023-02-14T00:54:13.679Z,75.01
2023-02-14T00:54:23.791Z,75.12
2023-02-14T00:54:33.871Z,75.12
2023-02-14T00:54:43.942Z,75.12
2023-02-14T00:54:54.011Z,75.12
2023-02-14T00:55:04.095Z,75.12
2023-02-14T00:55:14.174Z,75.12
2023-02-14T00:55:24.225Z,75.12
2023-02-14T00:55:34.293Z,75.12
2023-02-14T00:55:44.375Z,75.12
2023-02-14T00:55:54.499Z,75.12
2023-02-14T00:56:04.562Z,75.12
2023-02-14T00:56:14.633Z,75.12
2023-02-14T00:56:24.691Z,75.12
2023-02-14T00:56:34.768Z,75.01
2023-02-14T00:56:44.834Z,75.01
2023-02-14T00:56:54.922Z,75.01
2023-02-14T00:57:04.995Z,75.01
2023-02-14T00:57:15.061Z,75.01
2023-02-14T00:57:25.129Z,75.12
2023-02-14T00:57:35.220Z,75.12
2023-02-14T00:57:45.286Z,75.12
2023-02-14T00:57:55.341Z,75.12
2023-02-14T00:58:05.445Z,75.12
2023-02-14T00:58:15.510Z,75.12
2023-02-14T00:58:25.582Z,75.01
2023-02-14T00:58:35.654Z,75.01
2023-02-14T00:58:45.724Z,74.91
2023-02-14T00:58:55.791Z,74.91
2023-02-14T00:59:05.874Z,74.91
2023-02-14T00:59:15.939Z,74.81
2023-02-14T00:59:26.043Z,74.91
2023-02-14T00:59:36.085Z,74.91
2023-02-14T00:59:46.200Z,74.91
2023-02-14T00:59:56.273Z,74.91
2023-02-14T01:00:06.340Z,74.91
2023-02-14T01:00:16.410Z,75.01
2023-02-14T01:00:26.482Z,75.01
2023-02-14T01:00:36.605Z,75.01
2023-02-14T01:00:46.749Z,75.01
2023-02-14T01:00:57.198Z,75.01
2023-02-14T01:01:06.962Z,75.01
2023-02-14T01:01:16.915Z,75.01
2023-02-14T01:01:27.029Z,75.01
2023-02-14T01:01:37.121Z,74.91
2023-02-14T01:01:47.191Z,74.91
2023-02-14T01:01:57.260Z,74.91
2023-02-14T01:02:07.367Z,74.91
2023-02-14T01:02:17.481Z,74.91
2023-02-14T01:02:27.538Z,74.91
2023-02-14T01:02:37.602Z,74.91
2023-02-14T01:02:47.763Z,74.91
2023-02-14T01:02:57.689Z,74.91
2023-02-14T01:03:07.788Z,74.91
2023-02-14T01:03:17.859Z,74.91
2023-02-14T01:03:27.918Z,75.01
2023-02-14T01:03:37.992Z,75.01
2023-02-14T01:03:48.065Z,75.01
2023-02-14T01:03:58.133Z,75.01
2023-02-14T01:04:08.243Z,75.12
2023-02-14T01:04:18.441Z,75.12
2023-02-14T01:04:28.340Z,75.12
2023-02-14T01:04:38.423Z,75.12
2023-02-14T01:04:48.500Z,75.12
2023-02-14T01:04:58.570Z,75.12
2023-02-14T01:05:08.645Z,75.22
2023-02-14T01:05:18.741Z,75.22
2023-02-14T01:05:28.820Z,75.22
2023-02-14T01:05:38.889Z,75.22
2023-02-14T01:05:48.964Z,75.22
2023-02-14T01:05:59.015Z,75.22
2023-02-14T01:06:09.091Z,75.22
2023-02-14T01:06:19.159Z,75.22
2023-02-14T01:06:29.144Z,75.22
2023-02-14T01:06:39.210Z,75.22
2023-02-14T01:06:49.273Z,75.12
2023-02-14T01:06:59.366Z,75.12
2023-02-14T01:07:09.441Z,75.12
2023-02-14T01:07:19.500Z,75.01
2023-02-14T01:07:29.573Z,75.01
2023-02-14T01:07:39.641Z,75.01
2023-02-14T01:07:49.742Z,75.01
2023-02-14T01:07:59.799Z,75.01
2023-02-14T01:08:09.858Z,75.01
2023-02-14T01:08:19.925Z,75.12
2023-02-14T01:08:29.982Z,75.12
2023-02-14T01:08:40.105Z,75.12
2023-02-14T01:08:50.208Z,75.12
2023-02-14T01:09:00.301Z,75.05
2023-02-14T01:09:10.361Z,75.05
2023-02-14T01:09:20.430Z,75.01
2023-02-14T01:09:30.501Z,75.01
2023-02-14T01:09:40.609Z,74.91
2023-02-14T01:09:50.688Z,74.91
2023-02-14T01:10:00.820Z,75.05
2023-02-14T01:10:10.879Z,74.91
2023-02-14T01:10:20.949Z,74.91
2023-02-14T01:10:31.042Z,74.91
2023-02-14T01:10:41.119Z,74.95
2023-02-14T01:10:51.178Z,74.95
2023-02-14T01:11:01.765Z,74.91
2023-02-14T01:11:11.312Z,74.91
2023-02-14T01:11:21.375Z,75.01
2023-02-14T01:11:31.450Z,75.01
2023-02-14T01:11:41.519Z,75.01
2023-02-14T01:11:51.578Z,75.01
2023-02-14T01:12:01.640Z,75.01
2023-02-14T01:12:11.720Z,75.01
2023-02-14T01:12:21.816Z,75.01
2023-02-14T01:12:31.879Z,75.01
2023-02-14T01:12:41.929Z,75.01
2023-02-14T01:12:52.050Z,75.01
2023-02-14T01:13:02.108Z,75.12
2023-02-14T01:13:12.159Z,75.12
2023-02-14T01:13:22.230Z,75.12
2023-02-14T01:13:32.300Z,75.01
2023-02-14T01:13:42.368Z,75.01
2023-02-14T01:13:52.438Z,75.01
2023-02-14T01:14:02.513Z,75.01
2023-02-14T01:14:12.578Z,74.91
2023-02-14T01:14:22.671Z,74.91
2023-02-14T01:14:32.738Z,74.91
2023-02-14T01:14:42.812Z,74.91
2023-02-14T01:14:52.899Z,75.01
2023-02-14T01:15:02.988Z,75.01
2023-02-14T01:15:13.073Z,75.01
2023-02-14T01:15:23.149Z,75.01
2023-02-14T01:15:33.238Z,75.01
2023-02-14T01:15:43.303Z,75.01
2023-02-14T01:15:53.380Z,75.01
2023-02-14T01:16:03.451Z,75.01
2023-02-14T01:16:13.537Z,75.01
2023-02-14T01:16:23.720Z,74.91
2023-02-14T01:16:33.708Z,74.91
2023-02-14T01:16:43.825Z,74.81
2023-02-14T01:16:53.961Z,74.81
2023-02-14T01:17:04.035Z,74.81
2023-02-14T01:17:14.109Z,74.81
2023-02-14T01:17:24.178Z,74.81
2023-02-14T01:17:34.256Z,74.81
2023-02-14T01:17:44.320Z,74.91
2023-02-14T01:17:54.390Z,74.91
2023-02-14T01:18:04.468Z,74.91
2023-02-14T01:18:14.547Z,74.91
2023-02-14T01:18:24.631Z,74.91
2023-02-14T01:18:34.699Z,74.91
2023-02-14T01:18:44.768Z,74.91
2023-02-14T01:18:54.858Z,74.91
2023-02-14T01:19:04.932Z,74.91
2023-02-14T01:19:15.036Z,74.91
2023-02-14T01:19:25.088Z,74.91
2023-02-14T01:19:35.181Z,74.91
2023-02-14T01:19:45.247Z,74.81
2023-02-14T01:19:55.351Z,74.81
2023-02-14T01:20:05.424Z,74.81
2023-02-14T01:20:15.478Z,74.81
2023-02-14T01:20:25.546Z,74.71
2023-02-14T01:20:35.649Z,74.71
2023-02-14T01:20:45.718Z,74.60
2023-02-14T01:20:55.809Z,74.60
2023-02-14T01:21:05.887Z,74.71
2023-02-14T01:21:15.961Z,74.71
2023-02-14T01:21:26.027Z,74.71
2023-02-14T01:21:36.088Z,74.71
2023-02-14T01:21:46.160Z,74.60
2023-02-14T01:21:56.236Z,74.60
2023-02-14T01:22:06.301Z,74.60
2023-02-14T01:22:16.377Z,74.60
2023-02-14T01:22:26.448Z,74.71
2023-02-14T01:22:36.548Z,74.74
2023-02-14T01:22:46.607Z,74.71
2023-02-14T01:22:56.706Z,74.71
2023-02-14T01:23:06.816Z,74.81
2023-02-14T01:23:16.899Z,74.81
2023-02-14T01:23:26.967Z,74.81
2023-02-14T01:23:37.098Z,74.81
2023-02-14T01:23:47.170Z,74.95
2023-02-14T01:23:57.239Z,74.81
2023-02-14T01:24:07.309Z,74.84
2023-02-14T01:24:17.378Z,74.84
2023-02-14T01:24:27.457Z,74.91
2023-02-14T01:24:37.527Z,74.91
2023-02-14T01:24:47.633Z,74.95
2023-02-14T01:24:57.687Z,74.91
2023-02-14T01:25:07.759Z,74.91
2023-02-14T01:25:17.835Z,74.91
2023-02-14T01:25:27.924Z,75.01
2023-02-14T01:25:37.990Z,74.95
2023-02-14T01:25:48.083Z,74.95
2023-02-14T01:25:58.148Z,74.91
2023-02-14T01:26:08.241Z,75.05
2023-02-14T01:26:18.287Z,75.05
2023-02-14T01:26:28.386Z,75.05
2023-02-14T01:26:38.465Z,75.01
2023-02-14T01:26:48.530Z,75.01
2023-02-14T01:26:58.607Z,75.15
2023-02-14T01:27:08.682Z,75.15
2023-02-14T01:27:18.756Z,75.12
2023-02-14T01:27:28.807Z,75.22
2023-02-14T01:27:38.886Z,75.22
2023-02-14T01:27:48.972Z,75.22
2023-02-14T01:27:59.027Z,75.22
2023-02-14T01:28:09.094Z,75.22
2023-02-14T01:28:19.166Z,75.22
2023-02-14T01:28:29.290Z,75.22
2023-02-14T01:28:39.396Z,75.22
2023-02-14T01:28:49.454Z,75.22
2023-02-14T01:28:59.558Z,75.22
2023-02-14T01:29:09.640Z,75.22
2023-02-14T01:29:19.696Z,75.22
2023-02-14T01:29:29.766Z,75.22
2023-02-14T01:29:39.831Z,75.32
2023-02-14T01:29:49.941Z,75.32
2023-02-14T01:30:00.182Z,75.32
2023-02-14T01:30:10.232Z,75.32
2023-02-14T01:30:20.368Z,75.43
2023-02-14T01:30:30.488Z,75.43
2023-02-14T01:30:40.563Z,75.43
2023-02-14T01:30:50.633Z,75.43
2023-02-14T01:31:01.033Z,75.43
2023-02-14T01:31:10.929Z,75.43
2023-02-14T01:31:21.030Z,75.43
2023-02-14T01:31:31.147Z,75.43
2023-02-14T01:31:41.275Z,75.43
2023-02-14T01:31:51.090Z,75.43
2023-02-14T01:32:01.241Z,75.43
2023-02-14T01:32:11.311Z,75.43
2023-02-14T01:32:21.450Z,75.43
2023-02-14T01:32:31.508Z,75.43
2023-02-14T01:32:41.576Z,75.43
2023-02-14T01:32:51.656Z,75.32
2023-02-14T01:33:01.750Z,75.32
2023-02-14T01:33:11.803Z,75.32
2023-02-14T01:33:21.863Z,75.22
2023-02-14T01:33:31.916Z,75.22
2023-02-14T01:33:41.989Z,75.12
2023-02-14T01:33:52.063Z,75.12
2023-02-14T01:34:02.117Z,75.12
2023-02-14T01:34:12.180Z,75.01
2023-02-14T01:34:22.246Z,75.01
2023-02-14T01:34:32.295Z,75.01
2023-02-14T01:34:42.364Z,74.91
2023-02-14T01:34:52.447Z,74.91
2023-02-14T01:35:02.511Z,74.81
2023-02-14T01:35:12.578Z,74.81
2023-02-14T01:35:22.635Z,74.81
2023-02-14T01:35:32.694Z,74.71
2023-02-14T01:35:42.755Z,74.71
2023-02-14T01:35:52.815Z,74.71
2023-02-14T01:36:02.886Z,74.60
2023-02-14T01:36:12.943Z,74.60
2023-02-14T01:36:22.996Z,74.60
2023-02-14T01:36:33.076Z,74.60
2023-02-14T01:36:43.135Z,74.60
2023-02-14T01:36:53.205Z,74.60
2023-02-14T01:37:03.266Z,74.60
2023-02-14T01:37:13.348Z,74.60
2023-02-14T01:37:23.417Z,74.71
2023-02-14T01:37:33.484Z,74.71
2023-02-14T01:37:43.542Z,74.71
2023-02-14T01:37:53.606Z,74.71
2023-02-14T01:38:03.695Z,74.60
2023-02-14T01:38:13.756Z,74.50
2023-02-14T01:38:23.827Z,74.50
2023-02-14T01:38:33.887Z,74.50
2023-02-14T01:38:43.946Z,74.50
2023-02-14T01:38:54.008Z,74.40
2023-02-14T01:39:04.084Z,74.40
2023-02-14T01:39:14.143Z,74.40
2023-02-14T01:39:24.206Z,74.40
2023-02-14T01:39:34.274Z,74.40
2023-02-14T01:39:44.356Z,74.40
2023-02-14T01:39:54.425Z,74.40
2023-02-14T01:40:04.499Z,74.40
2023-02-14T01:40:14.558Z,74.40
2023-02-14T01:40:24.627Z,74.29
2023-02-14T01:40:34.685Z,74.29
2023-02-14T01:40:44.754Z,74.29
2023-02-14T01:40:54.818Z,74.29
2023-02-14T01:41:04.874Z,74.40
2023-02-14T01:41:14.937Z,74.40
2023-02-14T01:41:24.997Z,74.40
2023-02-14T01:41:35.067Z,74.40
2023-02-14T01:41:45.130Z,74.40
2023-02-14T01:41:55.194Z,74.40
2023-02-14T01:42:05.246Z,74.40
2023-02-14T01:42:15.309Z,74.40
2023-02-14T01:42:25.367Z,74.40
2023-02-14T01:42:35.437Z,74.50
2023-02-14T01:42:45.487Z,74.50
2023-02-14T01:42:55.570Z,74.50
2023-02-14T01:43:05.644Z,74.50
2023-02-14T01:43:15.692Z,74.50
2023-02-14T01:43:25.754Z,74.50
2023-02-14T01:43:35.818Z,74.40
2023-02-14T01:43:45.898Z,74.40
2023-02-14T01:43:55.973Z,74.29
2023-02-14T01:44:06.029Z,74.29
2023-02-14T01:44:16.086Z,74.29
2023-02-14T01:44:26.197Z,74.29
2023-02-14T01:44:36.266Z,74.29
2023-02-14T01:44:46.327Z,74.29
2023-02-14T01:44:56.399Z,74.40
2023-02-14T01:45:06.468Z,74.40
2023-02-14T01:45:16.534Z,74.40
2023-02-14T01:45:26.606Z,74.40
2023-02-14T01:45:36.764Z,74.40
2023-02-14T01:45:46.701Z,74.40
2023-02-14T01:45:56.860Z,74.29
2023-02-14T01:46:06.831Z,74.29
2023-02-14T01:46:16.962Z,74.29
2023-02-14T01:46:27.026Z,74.29
2023-02-14T01:46:37.097Z,74.29
2023-02-14T01:46:47.148Z,74.29
2023-02-14T01:46:57.204Z,74.40
2023-02-14T01:47:07.269Z,74.40
2023-02-14T01:47:17.338Z,74.40
2023-02-14T01:47:27.416Z,74.40
2023-02-14T01:47:37.477Z,74.40
2023-02-14T01:47:47.536Z,74.40
2023-02-14T01:47:57.618Z,74.50
2023-02-14T01:48:07.678Z,74.50
2023-02-14T01:48:17.748Z,74.50
2023-02-14T01:48:27.834Z,74.50
2023-02-14T01:48:37.889Z,74.60
2023-02-14T01:48:47.960Z,74.60
2023-02-14T01:48:58.045Z,74.60
2023-02-14T01:49:08.077Z,74.60
2023-02-14T01:49:18.129Z,74.71
2023-02-14T01:49:28.197Z,74.71
2023-02-14T01:49:38.258Z,74.71
2023-02-14T01:49:48.399Z,74.71
2023-02-14T01:49:58.477Z,74.71
2023-02-14T01:50:08.537Z,74.71
2023-02-14T01:50:18.591Z,74.71
2023-02-14T01:50:28.659Z,74.71
2023-02-14T01:50:38.718Z,74.71
2023-02-14T01:50:48.778Z,74.71
2023-02-14T01:50:59.215Z,74.71
2023-02-14T01:51:08.953Z,74.71
2023-02-14T01:51:19.020Z,74.71
2023-02-14T01:51:29.079Z,74.71
2023-02-14T01:51:39.138Z,74.60
2023-02-14T01:51:49.198Z,74.60
2023-02-14T01:51:59.268Z,74.60
2023-02-14T01:52:09.318Z,74.60
2023-02-14T01:52:19.380Z,74.60
2023-02-14T01:52:29.447Z,74.60
2023-02-14T01:52:39.513Z,74.60
2023-02-14T01:52:49.576Z,74.60
2023-02-14T01:52:59.648Z,74.60
2023-02-14T01:53:09.718Z,74.60
2023-02-14T01:53:19.815Z,74.60
2023-02-14T01:53:29.862Z,74.60
2023-02-14T01:53:39.928Z,74.60
2023-02-14T01:53:49.992Z,74.71
2023-02-14T01:54:00.085Z,74.71
2023-02-14T01:54:10.140Z,74.71
2023-02-14T01:54:20.201Z,74.71
2023-02-14T01:54:30.268Z,74.60
2023-02-14T01:54:40.327Z,74.60
2023-02-14T01:54:50.388Z,74.60
2023-02-14T01:55:00.478Z,74.60
2023-02-14T01:55:10.536Z,74.60
2023-02-14T01:55:20.634Z,74.60
2023-02-14T01:55:30.705Z,74.60
2023-02-14T01:55:40.819Z,74.60
2023-02-14T01:55:50.880Z,74.60
2023-02-14T01:56:00.939Z,74.60
2023-02-14T01:56:11.018Z,74.67
2023-02-14T01:56:21.087Z,74.67
2023-02-14T01:56:31.148Z,74.67
2023-02-14T01:56:41.156Z,74.71
2023-02-14T01:56:51.190Z,74.77
2023-02-14T01:57:01.196Z,74.77
2023-02-14T01:57:11.221Z,74.77
2023-02-14T01:57:21.227Z,74.77
2023-02-14T01:57:31.281Z,74.77
2023-02-14T01:57:41.326Z,74.77
2023-02-14T01:57:51.358Z,74.88
2023-02-14T01:58:01.357Z,74.88
2023-02-14T01:58:11.384Z,74.77
2023-02-14T01:58:21.397Z,74.77
2023-02-14T01:58:31.414Z,74.77
2023-02-14T01:58:41.438Z,74.67
2023-02-14T01:58:51.458Z,74.57
2023-02-14T01:59:01.477Z,74.46
2023-02-14T01:59:11.608Z,74.46
2023-02-14T01:59:21.485Z,74.36
2023-02-14T01:59:31.497Z,74.36
2023-02-14T01:59:41.558Z,74.36
2023-02-14T01:59:51.638Z,74.36
2023-02-14T02:00:01.729Z,74.36
2023-02-14T02:00:11.780Z,74.26
2023-02-14T02:00:21.847Z,74.26
2023-02-14T02:00:31.918Z,74.26
2023-02-14T02:00:42.014Z,74.26
2023-02-14T02:00:52.113Z,74.26
2023-02-14T02:01:02.612Z,74.26
2023-02-14T02:01:12.296Z,74.26
2023-02-14T02:01:22.413Z,74.26
2023-02-14T02:01:32.569Z,74.26
2023-02-14T02:01:42.562Z,74.36
2023-02-14T02:01:52.492Z,74.36
2023-02-14T02:02:02.561Z,74.36
2023-02-14T02:02:12.685Z,74.36
2023-02-14T02:02:22.806Z,74.36
2023-02-14T02:02:32.942Z,74.26
2023-02-14T02:02:43.100Z,74.26
2023-02-14T02:02:52.980Z,74.26
2023-02-14T02:03:03.116Z,74.26
2023-02-14T02:03:13.187Z,74.26
2023-02-14T02:03:23.264Z,74.15
2023-02-14T02:03:33.329Z,74.15
2023-02-14T02:03:43.394Z,74.15
2023-02-14T02:03:53.457Z,74.15
2023-02-14T02:04:03.530Z,74.15
2023-02-14T02:04:13.609Z,74.15
2023-02-14T02:04:23.737Z,74.26
2023-02-14T02:04:33.816Z,74.26
2023-02-14T02:04:43.887Z,74.26
2023-02-14T02:04:53.956Z,74.26
2023-02-14T02:05:04.030Z,74.26
2023-02-14T02:05:14.108Z,74.26
2023-02-14T02:05:24.167Z,74.26
2023-02-14T02:05:34.229Z,74.26
2023-02-14T02:05:44.308Z,74.26
2023-02-14T02:05:54.387Z,74.26
2023-02-14T02:06:04.474Z,74.26
2023-02-14T02:06:14.537Z,74.26
2023-02-14T02:06:24.666Z,74.36
2023-02-14T02:06:34.739Z,74.36
2023-02-14T02:06:44.808Z,74.36
2023-02-14T02:06:54.880Z,74.36
2023-02-14T02:07:04.950Z,74.36
2023-02-14T02:07:15.037Z,74.36
2023-02-14T02:07:25.102Z,74.36
2023-02-14T02:07:35.178Z,74.36
2023-02-14T02:07:45.268Z,74.36
2023-02-14T02:07:55.337Z,74.26
2023-02-14T02:08:05.464Z,74.26
2023-02-14T02:08:15.539Z,74.15
2023-02-14T02:08:25.604Z,74.15
2023-02-14T02:08:35.686Z,74.15
2023-02-14T02:08:45.817Z,74.15
2023-02-14T02:08:55.909Z,74.15
2023-02-14T02:09:05.979Z,74.15
2023-02-14T02:09:16.058Z,74.15
2023-02-14T02:09:26.165Z,74.26
2023-02-14T02:09:36.237Z,74.19
2023-02-14T02:09:46.348Z,74.15